Time;durP1;ratioP1;P1;durP2;ratioP2;P2;SDS_P1;SDS_P2;PMS_P1;PMS_P2;Temp;Humidity;BMP_temperature;BMP_pressure;BME280_temperature;BME280_humidity;BME280_pressure;Samples;Min_cycle;Max_cycle;Signal;HPM_P1;HPM_P2
2021/06/14 00:02:13;;;;;;;7.22;3.08;;;;;;;;;;5037756;28;20032;-77
2021/06/14 00:04:59;;;;;;;6.35;3.33;;;;;;;;;;5033162;28;20538;-77
2021/06/14 00:07:44;;;;;;;5.78;3.05;;;;;;;;;;5033617;28;20036;-75
2021/06/14 00:10:30;;;;;;;7.57;3.50;;;;;;;;;;5037790;28;20040;-76
2021/06/14 00:13:15;;;;;;;4.50;3.28;;;;;;;;;;5025936;28;20384;-77
2021/06/14 00:16:00;;;;;;;6.28;3.25;;;;;;;;;;5044011;28;20028;-77
2021/06/14 00:18:45;;;;;;;9.05;3.78;;;;;;;;;;5034369;28;20017;-76
2021/06/14 00:21:31;;;;;;;5.38;3.17;;;;;;;;;;5032164;28;20033;-76
2021/06/14 00:24:16;;;;;;;6.45;3.45;;;;;;;;;;5040205;28;20186;-76
2021/06/14 00:27:01;;;;;;;5.90;3.30;;;;;;;;;;5041993;28;20392;-76
2021/06/14 00:29:47;;;;;;;8.55;3.05;;;;;;;;;;5042392;28;20108;-76
2021/06/14 00:32:32;;;;;;;10.00;3.35;;;;;;;;;;5033121;28;20676;-77
2021/06/14 00:35:17;;;;;;;4.70;2.92;;;;;;;;;;5035447;28;20463;-76
2021/06/14 00:38:03;;;;;;;5.05;3.40;;;;;;;;;;5043859;28;20031;-76
2021/06/14 00:40:48;;;;;;;5.60;2.83;;;;;;;;;;5042705;28;20036;-76
2021/06/14 00:43:34;;;;;;;7.38;2.70;;;;;;;;;;5033840;28;20562;-76
2021/06/14 00:46:19;;;;;;;4.65;3.15;;;;;;;;;;5035569;28;20108;-75
2021/06/14 00:49:04;;;;;;;5.25;3.28;;;;;;;;;;5035921;28;20437;-75
2021/06/14 00:51:49;;;;;;;5.32;2.95;;;;;;;;;;5039503;28;20387;-75
2021/06/14 00:54:35;;;;;;;6.53;3.42;;;;;;;;;;5041042;28;20667;-76
2021/06/14 00:57:20;;;;;;;7.97;3.53;;;;;;;;;;5042740;28;20025;-76
2021/06/14 01:00:06;;;;;;;4.00;3.00;;;;;;;;;;5046667;28;20057;-76
2021/06/14 01:02:51;;;;;;;8.20;3.33;;;;;;;;;;5039289;28;20025;-76
2021/06/14 01:05:38;;;;;;;5.97;3.05;;;;;;;;;;5049556;28;20098;-76
2021/06/14 01:08:23;;;;;;;5.45;3.10;;;;;;;;;;5036830;28;20474;-76
2021/06/14 01:11:15;;;;;;;6.47;3.30;;;;;;;;;;5060148;28;20467;-76
2021/06/14 01:14:11;;;;;;;6.63;3.25;;;;;;;;;;5036466;28;20035;-76
2021/06/14 01:17:03;;;;;;;4.32;3.05;;;;;;;;;;5037127;28;20463;-76
2021/06/14 01:20:07;;;;;;;6.68;3.70;;;;;;;;;;5035222;28;20082;-76
2021/06/14 01:23:01;;;;;;;6.65;2.80;;;;;;;;;;5037027;28;20029;-78
2021/06/14 01:25:51;;;;;;;6.50;3.28;;;;;;;;;;5036499;28;20341;-78
2021/06/14 01:28:37;;;;;;;8.73;3.03;;;;;;;;;;5062293;28;20090;-78
2021/06/14 01:31:23;;;;;;;5.28;3.55;;;;;;;;;;5041302;28;20029;-78
2021/06/14 01:34:08;;;;;;;5.40;3.17;;;;;;;;;;5035254;28;20480;-77
2021/06/14 01:36:56;;;;;;;6.85;3.05;;;;;;;;;;5042576;28;20699;-78
2021/06/14 01:39:42;;;;;;;7.55;3.10;;;;;;;;;;5044251;28;20047;-78
2021/06/14 01:42:28;;;;;;;7.22;3.65;;;;;;;;;;5038212;28;20131;-79
2021/06/14 01:45:14;;;;;;;5.32;3.15;;;;;;;;;;5037062;28;20028;-78
2021/06/14 01:48:00;;;;;;;7.25;3.22;;;;;;;;;;5044146;28;20601;-79
2021/06/14 01:50:45;;;;;;;7.50;3.63;;;;;;;;;;5035180;28;20394;-78
2021/06/14 01:53:30;;;;;;;5.40;3.05;;;;;;;;;;5031185;28;20029;-78
2021/06/14 01:56:16;;;;;;;5.55;3.35;;;;;;;;;;5056553;28;20041;-78
2021/06/14 01:59:02;;;;;;;6.50;3.20;;;;;;;;;;5043000;28;20029;-79
2021/06/14 02:01:48;;;;;;;5.95;2.85;;;;;;;;;;5028368;28;20384;-78
2021/06/14 02:04:33;;;;;;;5.68;3.28;;;;;;;;;;5064873;28;20439;-78
2021/06/14 02:07:19;;;;;;;6.90;3.42;;;;;;;;;;5035262;28;20072;-78
2021/06/14 02:10:05;;;;;;;7.93;3.10;;;;;;;;;;5039442;28;20035;-78
2021/06/14 02:12:51;;;;;;;6.07;3.60;;;;;;;;;;5045987;28;20035;-78
2021/06/14 02:15:37;;;;;;;7.00;3.60;;;;;;;;;;5038240;28;20055;-78
2021/06/14 02:18:24;;;;;;;7.35;3.53;;;;;;;;;;5037995;28;20157;-78
2021/06/14 02:21:09;;;;;;;6.05;3.10;;;;;;;;;;5030427;28;20061;-77
2021/06/14 02:23:54;;;;;;;9.18;3.28;;;;;;;;;;5040724;28;20043;-78
2021/06/14 02:26:40;;;;;;;4.18;2.88;;;;;;;;;;5034713;28;20028;-79
2021/06/14 02:29:25;;;;;;;7.82;3.05;;;;;;;;;;5031013;28;20037;-77
2021/06/14 02:32:11;;;;;;;6.40;3.35;;;;;;;;;;5039305;28;20531;-77
2021/06/14 02:34:56;;;;;;;5.88;3.30;;;;;;;;;;5042879;28;20628;-78
2021/06/14 02:37:48;;;;;;;8.50;3.20;;;;;;;;;;5061759;28;20332;-77
2021/06/14 02:40:34;;;;;;;6.30;3.40;;;;;;;;;;5040778;28;20371;-78
2021/06/14 02:43:21;;;;;;;6.07;3.47;;;;;;;;;;5040440;28;20023;-78
2021/06/14 02:46:07;;;;;;;6.57;3.20;;;;;;;;;;5041272;28;20750;-77
2021/06/14 02:48:52;;;;;;;6.70;3.47;;;;;;;;;;5060833;28;20055;-77
2021/06/14 02:51:38;;;;;;;4.95;3.08;;;;;;;;;;5042530;28;20111;-77
2021/06/14 02:54:26;;;;;;;8.88;3.42;;;;;;;;;;5043177;28;20043;-77
2021/06/14 02:57:12;;;;;;;8.10;4.15;;;;;;;;;;5042300;28;20017;-78
2021/06/14 02:59:58;;;;;;;6.55;3.03;;;;;;;;;;5041672;28;20028;-77
2021/06/14 03:02:43;;;;;;;10.15;3.42;;;;;;;;;;5047846;28;23177;-78
2021/06/14 03:05:29;;;;;;;5.93;3.28;;;;;;;;;;5037810;28;20024;-78
2021/06/14 03:08:15;;;;;;;8.18;3.30;;;;;;;;;;5064391;28;20032;-78
2021/06/14 03:11:00;;;;;;;7.82;3.50;;;;;;;;;;5044843;28;20333;-78
2021/06/14 03:13:46;;;;;;;8.35;3.67;;;;;;;;;;5043183;28;20082;-78
2021/06/14 03:16:31;;;;;;;6.38;3.53;;;;;;;;;;5042031;28;20090;-78
2021/06/14 03:19:19;;;;;;;7.97;3.47;;;;;;;;;;5040995;28;20031;-77
2021/06/14 03:22:06;;;;;;;7.70;3.70;;;;;;;;;;5046681;28;20067;-78
2021/06/14 03:24:51;;;;;;;5.53;3.45;;;;;;;;;;5043270;28;20463;-77
2021/06/14 03:27:36;;;;;;;6.70;3.55;;;;;;;;;;5042672;28;20021;-77
2021/06/14 03:30:22;;;;;;;8.82;3.85;;;;;;;;;;5042117;28;20112;-77
2021/06/14 03:33:08;;;;;;;6.43;3.40;;;;;;;;;;5044337;28;20020;-77
2021/06/14 03:35:54;;;;;;;6.18;3.30;;;;;;;;;;5037366;28;20145;-77
2021/06/14 03:38:41;;;;;;;6.60;3.20;;;;;;;;;;5036402;28;20032;-77
2021/06/14 03:41:26;;;;;;;6.43;3.55;;;;;;;;;;5043622;28;20020;-77
2021/06/14 03:44:12;;;;;;;7.88;3.85;;;;;;;;;;5027868;28;20021;-77
2021/06/14 03:46:57;;;;;;;6.95;3.45;;;;;;;;;;5065143;28;20124;-77
2021/06/14 03:49:42;;;;;;;9.68;3.67;;;;;;;;;;5041973;28;20032;-78
2021/06/14 03:52:27;;;;;;;7.38;3.85;;;;;;;;;;5045962;28;20841;-77
2021/06/14 03:55:13;;;;;;;6.80;3.70;;;;;;;;;;5042916;28;20028;-77
2021/06/14 03:57:58;;;;;;;5.28;3.47;;;;;;;;;;5041438;28;20021;-78
2021/06/14 04:00:43;;;;;;;10.10;3.50;;;;;;;;;;5039775;28;20027;-78
2021/06/14 04:03:29;;;;;;;4.55;3.28;;;;;;;;;;5041372;28;20024;-78
2021/06/14 04:06:14;;;;;;;9.77;4.40;;;;;;;;;;5040218;28;20063;-77
2021/06/14 04:08:59;;;;;;;6.28;3.50;;;;;;;;;;5064468;28;20033;-77
2021/06/14 04:11:44;;;;;;;9.13;3.88;;;;;;;;;;5047828;28;20028;-77
2021/06/14 04:14:29;;;;;;;6.22;4.00;;;;;;;;;;5037546;28;20074;-77
2021/06/14 04:17:15;;;;;;;6.35;3.38;;;;;;;;;;5041872;28;20016;-76
2021/06/14 04:20:00;;;;;;;5.53;3.65;;;;;;;;;;5047399;28;20096;-78
2021/06/14 04:22:46;;;;;;;6.68;3.70;;;;;;;;;;5041027;28;20045;-77
2021/06/14 04:25:31;;;;;;;6.25;3.85;;;;;;;;;;5038724;28;20032;-76
2021/06/14 04:28:17;;;;;;;10.48;4.03;;;;;;;;;;5043135;28;20035;-77
2021/06/14 04:31:02;;;;;;;7.28;4.22;;;;;;;;;;5041661;28;20035;-77
2021/06/14 04:33:47;;;;;;;6.97;3.88;;;;;;;;;;5064165;28;20031;-77
2021/06/14 04:36:32;;;;;;;6.05;3.67;;;;;;;;;;5036689;28;20051;-77
2021/06/14 04:39:18;;;;;;;8.07;4.15;;;;;;;;;;5044370;28;20032;-77
2021/06/14 04:42:03;;;;;;;7.55;3.45;;;;;;;;;;5033643;28;20033;-77
2021/06/14 04:44:49;;;;;;;8.25;4.65;;;;;;;;;;5038582;28;20036;-77
2021/06/14 04:47:34;;;;;;;7.40;4.00;;;;;;;;;;5032257;28;20045;-77
2021/06/14 04:50:19;;;;;;;9.43;4.72;;;;;;;;;;5043216;28;20025;-77
2021/06/14 04:53:04;;;;;;;9.80;4.68;;;;;;;;;;5036092;28;20028;-77
2021/06/14 04:55:50;;;;;;;7.45;3.97;;;;;;;;;;5034787;28;20391;-78
2021/06/14 04:58:35;;;;;;;5.32;3.50;;;;;;;;;;5039239;28;20027;-77
2021/06/14 05:01:20;;;;;;;8.25;3.85;;;;;;;;;;5047434;28;20668;-77
2021/06/14 05:04:05;;;;;;;6.13;3.70;;;;;;;;;;5033683;28;20021;-78
2021/06/14 05:06:51;;;;;;;9.45;3.63;;;;;;;;;;5036893;28;20037;-77
2021/06/14 05:09:36;;;;;;;6.28;3.80;;;;;;;;;;5036517;28;20035;-77
2021/06/14 05:12:21;;;;;;;8.40;3.97;;;;;;;;;;5048855;28;20028;-77
2021/06/14 05:15:07;;;;;;;7.07;3.80;;;;;;;;;;5039670;28;20032;-76
2021/06/14 05:17:52;;;;;;;7.57;4.10;;;;;;;;;;5032460;28;20036;-76
2021/06/14 05:20:37;;;;;;;7.30;3.40;;;;;;;;;;5039775;28;20376;-77
2021/06/14 05:23:23;;;;;;;7.68;3.67;;;;;;;;;;5034960;28;20069;-77
2021/06/14 05:26:08;;;;;;;10.20;4.30;;;;;;;;;;5046862;28;20351;-78
2021/06/14 05:28:53;;;;;;;10.93;4.28;;;;;;;;;;5040071;28;20036;-77
2021/06/14 05:31:39;;;;;;;9.35;3.83;;;;;;;;;;5036551;28;20111;-78
2021/06/14 05:34:24;;;;;;;9.57;3.38;;;;;;;;;;5036195;28;20048;-77
2021/06/14 05:37:09;;;;;;;10.82;4.30;;;;;;;;;;5028291;28;20041;-79
2021/06/14 05:39:54;;;;;;;8.63;4.07;;;;;;;;;;5027665;28;20033;-84
2021/06/14 05:42:39;;;;;;;7.57;4.25;;;;;;;;;;5012637;28;20078;-85
2021/06/14 05:45:25;;;;;;;7.57;3.30;;;;;;;;;;5014062;28;20032;-87
2021/06/14 05:48:10;;;;;;;7.32;3.20;;;;;;;;;;5015309;28;20029;-87
2021/06/14 05:50:55;;;;;;;7.50;3.28;;;;;;;;;;5013954;28;20044;-86
2021/06/14 05:53:40;;;;;;;6.43;2.88;;;;;;;;;;5030844;28;20026;-85
2021/06/14 05:56:25;;;;;;;19.42;5.78;;;;;;;;;;5017878;28;20037;-84
2021/06/14 05:59:11;;;;;;;8.85;3.55;;;;;;;;;;5013933;28;20032;-87
2021/06/14 06:01:56;;;;;;;7.57;3.92;;;;;;;;;;5020995;28;20395;-81
2021/06/14 06:04:41;;;;;;;6.53;4.05;;;;;;;;;;4996922;28;20540;-80
2021/06/14 06:07:26;;;;;;;9.20;3.75;;;;;;;;;;5016022;28;20384;-80
2021/06/14 06:10:12;;;;;;;6.88;4.03;;;;;;;;;;5032047;28;20379;-79
2021/06/14 06:12:57;;;;;;;6.88;3.17;;;;;;;;;;5030686;28;20029;-79
2021/06/14 06:15:42;;;;;;;8.07;3.70;;;;;;;;;;5024202;28;20021;-80
2021/06/14 06:18:31;;;;;;;8.02;5.18;;;;;;;;;;5020911;28;20120;-80
2021/06/14 06:21:17;;;;;;;22.50;14.10;;;;;;;;;;5025201;28;20029;-81
2021/06/14 06:24:02;;;;;;;9.93;4.88;;;;;;;;;;5028063;28;20348;-81
2021/06/14 06:26:47;;;;;;;5.63;3.00;;;;;;;;;;5025733;28;20025;-80
2021/06/14 06:29:33;;;;;;;8.13;3.30;;;;;;;;;;5026873;28;20029;-79
2021/06/14 06:32:18;;;;;;;6.22;3.25;;;;;;;;;;5023307;28;20033;-79
2021/06/14 06:35:04;;;;;;;4.90;2.83;;;;;;;;;;5028986;28;20047;-79
2021/06/14 06:37:50;;;;;;;8.57;3.70;;;;;;;;;;5035873;28;20111;-78
2021/06/14 06:40:35;;;;;;;7.25;3.40;;;;;;;;;;5031865;28;20474;-79
2021/06/14 06:43:20;;;;;;;6.05;2.83;;;;;;;;;;5040920;28;20028;-81
2021/06/14 06:46:05;;;;;;;6.05;3.13;;;;;;;;;;5040607;28;20027;-81
2021/06/14 06:48:51;;;;;;;5.68;3.13;;;;;;;;;;5039853;28;20521;-81
2021/06/14 06:51:36;;;;;;;6.55;3.20;;;;;;;;;;5039118;28;20832;-80
2021/06/14 06:54:21;;;;;;;6.47;2.80;;;;;;;;;;5038828;28;20037;-78
2021/06/14 06:57:07;;;;;;;9.07;4.90;;;;;;;;;;5034914;28;20021;-79
2021/06/14 06:59:52;;;;;;;10.90;5.72;;;;;;;;;;5040837;28;20049;-80
2021/06/14 07:02:37;;;;;;;4.82;2.85;;;;;;;;;;5051137;28;20017;-79
2021/06/14 07:05:23;;;;;;;9.30;2.97;;;;;;;;;;5043002;28;20029;-79
2021/06/14 07:08:08;;;;;;;6.75;2.80;;;;;;;;;;5044625;28;20033;-80
2021/06/14 07:10:54;;;;;;;5.38;2.60;;;;;;;;;;5043979;28;20119;-79
2021/06/14 07:13:39;;;;;;;3.95;2.67;;;;;;;;;;5019978;28;20041;-81
2021/06/14 07:16:24;;;;;;;6.45;2.70;;;;;;;;;;5039849;28;20029;-80
2021/06/14 07:19:09;;;;;;;6.38;2.65;;;;;;;;;;5045735;28;20422;-81
2021/06/14 07:21:55;;;;;;;5.65;2.78;;;;;;;;;;5039642;28;20047;-80
2021/06/14 07:24:40;;;;;;;8.35;2.85;;;;;;;;;;5036269;28;20031;-81
2021/06/14 07:27:26;;;;;;;8.35;2.95;;;;;;;;;;5045107;28;20033;-79
2021/06/14 07:30:12;;;;;;;5.82;2.72;;;;;;;;;;5037991;28;20040;-80
2021/06/14 07:32:57;;;;;;;7.53;3.03;;;;;;;;;;5030301;28;20451;-80
2021/06/14 07:35:42;;;;;;;6.95;4.50;;;;;;;;;;5041814;28;20119;-81
2021/06/14 07:38:27;;;;;;;12.27;6.97;;;;;;;;;;5033612;28;20166;-81
2021/06/14 07:41:13;;;;;;;8.18;3.58;;;;;;;;;;5039641;28;20021;-80
2021/06/14 07:43:58;;;;;;;6.68;2.92;;;;;;;;;;5059328;28;20032;-80
2021/06/14 07:46:44;;;;;;;7.43;2.55;;;;;;;;;;5035622;28;20025;-80
2021/06/14 07:49:29;;;;;;;5.65;2.90;;;;;;;;;;5035719;28;20112;-80
2021/06/14 07:52:15;;;;;;;5.50;2.83;;;;;;;;;;5039921;28;20060;-79
2021/06/14 07:55:00;;;;;;;7.05;2.78;;;;;;;;;;5034114;28;20040;-79
2021/06/14 07:57:45;;;;;;;5.57;2.80;;;;;;;;;;5040038;28;20021;-80
2021/06/14 08:00:30;;;;;;;5.82;2.70;;;;;;;;;;5059153;28;20384;-80
2021/06/14 08:03:15;;;;;;;5.65;2.70;;;;;;;;;;5064963;28;20020;-80
2021/06/14 08:06:04;;;;;;;6.65;2.97;;;;;;;;;;5037438;28;20062;-80
2021/06/14 08:08:49;;;;;;;7.75;2.90;;;;;;;;;;5037507;28;20082;-79
2021/06/14 08:11:35;;;;;;;6.57;2.90;;;;;;;;;;5038590;28;20463;-80
2021/06/14 08:14:21;;;;;;;4.68;2.70;;;;;;;;;;5035957;28;20035;-80
2021/06/14 08:17:06;;;;;;;5.15;2.65;;;;;;;;;;5039339;28;20029;-80
2021/06/14 08:20:04;;;;;;;8.20;3.05;;;;;;;;;;5037205;28;20495;-79
2021/06/14 08:25:57;;;;;;;8.13;2.97;;;;;;;;;;5018269;28;20432;-79
2021/06/14 08:28:43;;;;;;;5.85;2.95;;;;;;;;;;5063094;28;20067;-79
2021/06/14 08:31:29;;;;;;;5.22;3.03;;;;;;;;;;5040103;28;20031;-80
2021/06/14 08:34:14;;;;;;;10.38;2.72;;;;;;;;;;5038459;28;20719;-79
2021/06/14 08:36:59;;;;;;;6.55;2.97;;;;;;;;;;5041593;28;20040;-80
2021/06/14 08:39:44;;;;;;;5.30;2.70;;;;;;;;;;5065428;28;20025;-80
2021/06/14 08:42:30;;;;;;;20.08;14.38;;;;;;;;;;5037727;28;20075;-80
2021/06/14 08:45:18;;;;;;;12.43;7.43;;;;;;;;;;5035850;28;20075;-81
2021/06/14 08:48:05;;;;;;;7.00;2.72;;;;;;;;;;5040281;28;20059;-81
2021/06/14 08:50:51;;;;;;;7.40;2.97;;;;;;;;;;5035791;28;20052;-81
2021/06/14 08:53:37;;;;;;;4.28;2.75;;;;;;;;;;5039545;28;20105;-81
2021/06/14 08:56:23;;;;;;;5.90;2.25;;;;;;;;;;5029839;28;20025;-82
2021/06/14 08:59:08;;;;;;;5.03;2.63;;;;;;;;;;5036714;28;20017;-82
2021/06/14 09:01:53;;;;;;;4.97;2.38;;;;;;;;;;5035065;28;20752;-82
2021/06/14 09:04:39;;;;;;;7.85;3.25;;;;;;;;;;5068246;28;20493;-80
2021/06/14 09:07:24;;;;;;;7.35;3.13;;;;;;;;;;5050513;28;20218;-81
2021/06/14 09:10:21;;;;;;;5.95;2.72;;;;;;;;;;5043585;28;20036;-80
2021/06/14 09:13:09;;;;;;;18.00;13.50;;;;;;;;;;5048832;28;20036;-80
2021/06/14 09:16:08;;;;;;;9.55;6.03;;;;;;;;;;5039971;28;20056;-80
2021/06/14 09:18:55;;;;;;;8.73;2.97;;;;;;;;;;5043392;28;20068;-80
2021/06/14 09:21:40;;;;;;;5.38;2.28;;;;;;;;;;5063827;28;20111;-81
2021/06/14 09:24:25;;;;;;;7.72;3.22;;;;;;;;;;5060432;28;20024;-81
2021/06/14 09:27:11;;;;;;;4.47;2.35;;;;;;;;;;5061830;28;20025;-81
2021/06/14 09:29:56;;;;;;;6.43;2.10;;;;;;;;;;5043758;28;20506;-81
2021/06/14 09:32:51;;;;;;;8.05;2.75;;;;;;;;;;5042522;28;20071;-81
2021/06/14 09:35:38;;;;;;;5.60;2.30;;;;;;;;;;5031112;28;20122;-81
2021/06/14 09:38:25;;;;;;;5.05;2.70;;;;;;;;;;5038536;28;20013;-81
2021/06/14 09:41:12;;;;;;;5.85;2.63;;;;;;;;;;5039968;28;20032;-80
2021/06/14 09:43:57;;;;;;;7.30;2.83;;;;;;;;;;5034627;28;20032;-80
2021/06/14 09:46:42;;;;;;;4.60;2.13;;;;;;;;;;5042426;28;20023;-80
2021/06/14 09:49:27;;;;;;;7.20;2.70;;;;;;;;;;5036129;28;20025;-80
2021/06/14 09:52:19;;;;;;;7.18;2.72;;;;;;;;;;5039005;28;20025;-80
2021/06/14 09:55:08;;;;;;;4.93;2.25;;;;;;;;;;5035437;28;20033;-79
2021/06/14 09:57:53;;;;;;;;;;;;;;;;;;5039319;28;20025;-82
2021/06/14 10:00:46;;;;;;;6.38;2.20;;;;;;;;;;5037070;28;19916;-82
2021/06/14 10:03:45;;;;;;;5.88;2.33;;;;;;;;;;5036298;28;20039;-82
2021/06/14 10:06:36;;;;;;;5.47;2.50;;;;;;;;;;5038166;28;20074;-82
2021/06/14 10:09:21;;;;;;;6.38;2.20;;;;;;;;;;5038411;28;20032;-81
2021/06/14 10:12:26;;;;;;;7.22;2.42;;;;;;;;;;5048597;28;20061;-82
2021/06/14 10:15:14;;;;;;;9.18;5.72;;;;;;;;;;5052777;28;20442;-82
2021/06/14 10:17:59;;;;;;;9.73;2.80;;;;;;;;;;5037515;28;20029;-81
2021/06/14 10:20:44;;;;;;;2.58;1.77;;;;;;;;;;5038649;28;20020;-81
2021/06/14 10:23:31;;;;;;;4.95;1.88;;;;;;;;;;5044111;28;20025;-80
2021/06/14 10:26:16;;;;;;;3.00;1.90;;;;;;;;;;5036860;28;20075;-80
2021/06/14 10:29:03;;;;;;;4.20;1.83;;;;;;;;;;5036057;28;20128;-81
2021/06/14 10:31:50;;;;;;;4.60;2.30;;;;;;;;;;5036813;28;20115;-81
2021/06/14 10:34:35;;;;;;;5.82;2.08;;;;;;;;;;5040629;28;20071;-79
2021/06/14 10:37:21;;;;;;;5.05;2.65;;;;;;;;;;5037972;28;20430;-79
2021/06/14 10:40:08;;;;;;;8.30;3.58;;;;;;;;;;5060223;28;20025;-83
2021/06/14 10:42:53;;;;;;;10.93;3.72;;;;;;;;;;5038617;28;20196;-82
2021/06/14 10:45:39;;;;;;;14.00;4.50;;;;;;;;;;5034213;28;20044;-81
2021/06/14 10:48:26;;;;;;;14.65;5.57;;;;;;;;;;5035728;28;20542;-82
2021/06/14 10:51:15;;;;;;;14.10;4.18;;;;;;;;;;5037607;28;20028;-82
2021/06/14 10:54:19;;;;;;;4.75;2.10;;;;;;;;;;5036384;28;20035;-85
2021/06/14 10:57:04;;;;;;;5.63;2.08;;;;;;;;;;5035682;28;20084;-87
2021/06/14 10:59:50;;;;;;;8.45;2.45;;;;;;;;;;5044845;28;20025;-85
2021/06/14 11:02:36;;;;;;;5.10;1.85;;;;;;;;;;5038411;28;20039;-83
2021/06/14 11:05:28;;;;;;;5.55;1.90;;;;;;;;;;5038395;28;20025;-87
2021/06/14 11:08:14;;;;;;;2.63;1.80;;;;;;;;;;5060783;28;20028;-81
2021/06/14 11:11:03;;;;;;;4.95;2.03;;;;;;;;;;5037472;28;20025;-84
2021/06/14 11:13:49;;;;;;;3.00;1.80;;;;;;;;;;5044710;28;20033;-85
2021/06/14 11:16:36;;;;;;;5.70;2.20;;;;;;;;;;5021716;28;20029;-87
2021/06/14 11:19:21;;;;;;;4.05;2.03;;;;;;;;;;5027869;28;20585;-84
2021/06/14 11:22:06;;;;;;;4.88;2.10;;;;;;;;;;5034751;28;20107;-84
2021/06/14 11:24:52;;;;;;;5.70;2.15;;;;;;;;;;5033630;28;20742;-86
2021/06/14 11:27:38;;;;;;;5.07;2.50;;;;;;;;;;5051466;28;20094;-86
2021/06/14 11:30:28;;;;;;;4.38;2.53;;;;;;;;;;5030824;28;20482;-84
2021/06/14 11:33:22;;;;;;;5.28;2.40;;;;;;;;;;5050093;28;20063;-85
2021/06/14 11:36:16;;;;;;;7.30;2.00;;;;;;;;;;5041565;28;20036;-85
2021/06/14 11:39:12;;;;;;;7.75;2.03;;;;;;;;;;5040459;28;20383;-85
2021/06/14 11:42:06;;;;;;;6.80;1.92;;;;;;;;;;5044312;28;20025;-87
2021/06/14 11:44:56;;;;;;;3.38;1.75;;;;;;;;;;5035656;28;20026;-87
2021/06/14 11:47:41;;;;;;;3.85;1.60;;;;;;;;;;5046765;28;20031;-86
2021/06/14 11:50:28;;;;;;;3.72;1.77;;;;;;;;;;5066300;28;20043;-87
2021/06/14 11:53:13;;;;;;;3.08;1.40;;;;;;;;;;5036821;28;20029;-84
2021/06/14 11:56:00;;;;;;;3.83;1.80;;;;;;;;;;5041582;28;20495;-85
2021/06/14 11:58:55;;;;;;;3.50;1.63;;;;;;;;;;5036068;28;20064;-91
2021/06/14 12:01:41;;;;;;;4.10;1.80;;;;;;;;;;5058936;28;20087;-83
2021/06/14 12:04:26;;;;;;;2.53;1.40;;;;;;;;;;5042477;28;20040;-81
2021/06/14 12:07:11;;;;;;;4.35;1.63;;;;;;;;;;5056223;28;20024;-81
2021/06/14 12:09:58;;;;;;;7.93;1.70;;;;;;;;;;5041135;28;20021;-82
2021/06/14 12:12:47;;;;;;;5.05;1.50;;;;;;;;;;5039144;28;20499;-82
2021/06/14 12:15:33;;;;;;;11.13;5.68;;;;;;;;;;5046844;28;20514;-83
2021/06/14 12:18:19;;;;;;;5.72;2.53;;;;;;;;;;5037952;28;20025;-81
2021/06/14 12:21:06;;;;;;;2.72;1.88;;;;;;;;;;5060742;28;20545;-82
2021/06/14 12:23:51;;;;;;;4.53;1.70;;;;;;;;;;5040882;28;20032;-82
2021/06/14 12:26:39;;;;;;;3.53;1.90;;;;;;;;;;5047166;28;20025;-81
2021/06/14 12:29:24;;;;;;;5.85;2.13;;;;;;;;;;5036547;28;20387;-82
2021/06/14 12:32:11;;;;;;;5.35;1.92;;;;;;;;;;5042373;28;20024;-81
2021/06/14 12:35:00;;;;;;;3.17;1.98;;;;;;;;;;5042386;28;20025;-82
2021/06/14 12:37:45;;;;;;;3.95;1.77;;;;;;;;;;5036102;28;20020;-82
2021/06/14 12:40:31;;;;;;;5.93;3.42;;;;;;;;;;5045730;28;20055;-82
2021/06/14 12:43:16;;;;;;;5.75;3.35;;;;;;;;;;5042785;28;20028;-82
2021/06/14 12:46:07;;;;;;;2.58;1.58;;;;;;;;;;5037942;28;20036;-83
2021/06/14 12:48:52;;;;;;;4.75;1.88;;;;;;;;;;5063279;28;20383;-82
2021/06/14 12:51:42;;;;;;;4.47;1.77;;;;;;;;;;5037636;28;20020;-82
2021/06/14 12:54:34;;;;;;;6.55;2.00;;;;;;;;;;5038811;28;20028;-82
2021/06/14 12:57:24;;;;;;;5.28;1.60;;;;;;;;;;5038101;28;20067;-83
2021/06/14 13:00:10;;;;;;;3.60;1.92;;;;;;;;;;5039293;28;20096;-81
2021/06/14 13:02:57;;;;;;;7.57;1.83;;;;;;;;;;5035645;28;20027;-80
2021/06/14 13:05:44;;;;;;;8.23;3.38;;;;;;;;;;5043523;28;20055;-83
2021/06/14 13:08:41;;;;;;;11.90;5.72;;;;;;;;;;5048751;28;20082;-84
2021/06/14 13:11:26;;;;;;;6.88;2.58;;;;;;;;;;5034532;28;20033;-83
2021/06/14 13:14:12;;;;;;;7.45;3.45;;;;;;;;;;5043684;28;20119;-82
2021/06/14 13:16:57;;;;;;;4.35;1.90;;;;;;;;;;5048635;28;20035;-84
2021/06/14 13:19:43;;;;;;;7.93;2.92;;;;;;;;;;5043180;28;20484;-82
2021/06/14 13:22:32;;;;;;;6.15;2.90;;;;;;;;;;5042546;28;20025;-83
2021/06/14 13:25:23;;;;;;;7.35;2.78;;;;;;;;;;5048623;28;20108;-83
2021/06/14 13:28:08;;;;;;;5.95;2.60;;;;;;;;;;5040146;28;20039;-83
2021/06/14 13:30:54;;;;;;;6.15;2.85;;;;;;;;;;5040009;28;20024;-83
2021/06/14 13:33:52;;;;;;;5.15;1.98;;;;;;;;;;5043551;28;20052;-83
2021/06/14 13:36:38;;;;;;;5.47;2.40;;;;;;;;;;5043869;28;20129;-82
2021/06/14 13:39:29;;;;;;;6.75;3.25;;;;;;;;;;5070613;28;20503;-83
2021/06/14 13:42:14;;;;;;;3.13;1.88;;;;;;;;;;5035762;28;20399;-82
2021/06/14 13:44:59;;;;;;;3.60;1.80;;;;;;;;;;5045203;28;20025;-82
2021/06/14 13:47:44;;;;;;;5.18;1.88;;;;;;;;;;5040806;28;20017;-82
2021/06/14 13:50:37;;;;;;;4.57;1.52;;;;;;;;;;5043499;28;20352;-83
2021/06/14 13:53:23;;;;;;;7.03;1.85;;;;;;;;;;5061667;28;20108;-79
2021/06/14 13:56:08;;;;;;;2.20;1.38;;;;;;;;;;5039898;28;20395;-79
2021/06/14 13:58:53;;;;;;;4.28;2.00;;;;;;;;;;5032166;28;20025;-79
2021/06/14 14:01:39;;;;;;;8.25;5.53;;;;;;;;;;5042392;28;20029;-80
2021/06/14 14:04:25;;;;;;;8.50;3.55;;;;;;;;;;5031821;28;20021;-80
2021/06/14 14:07:11;;;;;;;2.95;1.80;;;;;;;;;;5036906;28;20380;-81
2021/06/14 14:09:57;;;;;;;3.90;1.60;;;;;;;;;;5041545;28;20056;-82
2021/06/14 14:12:43;;;;;;;6.07;1.88;;;;;;;;;;5035371;28;20083;-83
2021/06/14 14:15:28;;;;;;;4.07;2.20;;;;;;;;;;5037942;28;20037;-80
2021/06/14 14:18:13;;;;;;;3.50;1.52;;;;;;;;;;5051642;28;20238;-80
2021/06/14 14:20:58;;;;;;;5.53;2.03;;;;;;;;;;5028212;28;20028;-80
2021/06/14 14:23:44;;;;;;;4.55;2.08;;;;;;;;;;5062236;28;20116;-80
2021/06/14 14:26:33;;;;;;;14.75;5.18;;;;;;;;;;5064560;28;20162;-83
2021/06/14 14:29:18;;;;;;;;;;;;;;;;;;5035120;28;20032;-83
2021/06/14 14:32:04;;;;;;;14.00;5.25;;;;;;;;;;5039564;28;19909;-83
2021/06/14 14:34:50;;;;;;;4.50;2.30;;;;;;;;;;5038300;28;20037;-81
2021/06/14 14:37:56;;;;;;;6.97;2.28;;;;;;;;;;5047061;28;20036;-82
2021/06/14 14:40:41;;;;;;;7.40;2.38;;;;;;;;;;5022652;28;20077;-81
2021/06/14 14:43:26;;;;;;;4.35;1.80;;;;;;;;;;5039352;28;20055;-80
2021/06/14 14:46:12;;;;;;;5.25;2.42;;;;;;;;;;5040765;28;20036;-81
2021/06/14 14:48:58;;;;;;;9.15;3.00;;;;;;;;;;5044738;28;20070;-84
2021/06/14 14:51:44;;;;;;;5.30;2.13;;;;;;;;;;5037740;28;20387;-82
2021/06/14 14:54:30;;;;;;;4.63;1.88;;;;;;;;;;5044318;28;20643;-82
2021/06/14 14:57:15;;;;;;;5.25;1.88;;;;;;;;;;5035181;28;20021;-83
2021/06/14 15:00:00;;;;;;;6.53;3.55;;;;;;;;;;5044508;28;20012;-84
2021/06/14 15:02:45;;;;;;;4.70;3.10;;;;;;;;;;5044075;28;20025;-85
2021/06/14 15:05:31;;;;;;;4.60;1.90;;;;;;;;;;5034081;28;20032;-84
2021/06/14 15:08:16;;;;;;;2.70;1.67;;;;;;;;;;5069822;28;20032;-83
2021/06/14 15:11:02;;;;;;;4.85;2.15;;;;;;;;;;5064006;28;20025;-82
2021/06/14 15:13:47;;;;;;;9.80;3.03;;;;;;;;;;5035219;28;20025;-85
2021/06/14 15:16:33;;;;;;;4.55;1.92;;;;;;;;;;5041889;28;20029;-84
2021/06/14 15:19:18;;;;;;;3.08;1.42;;;;;;;;;;5069756;28;20093;-84
2021/06/14 15:22:04;;;;;;;4.53;2.05;;;;;;;;;;5037501;28;20028;-83
2021/06/14 15:24:50;;;;;;;3.47;1.95;;;;;;;;;;5043879;28;20040;-85
2021/06/14 15:27:35;;;;;;;5.13;2.00;;;;;;;;;;5039513;28;20063;-83
2021/06/14 15:30:21;;;;;;;3.55;1.85;;;;;;;;;;5046591;28;20025;-85
2021/06/14 15:33:06;;;;;;;9.05;1.83;;;;;;;;;;5037962;28;20105;-89
2021/06/14 15:35:52;;;;;;;3.08;1.83;;;;;;;;;;5045506;28;20518;-88
2021/06/14 15:38:38;;;;;;;3.15;1.52;;;;;;;;;;5063628;28;20028;-89
2021/06/14 15:41:24;;;;;;;4.18;2.03;;;;;;;;;;5041571;28;20029;-88
2021/06/14 15:44:09;;;;;;;9.90;1.77;;;;;;;;;;5041578;28;20017;-88
2021/06/14 15:46:54;;;;;;;3.70;2.03;;;;;;;;;;5038950;28;20033;-82
2021/06/14 15:49:40;;;;;;;4.07;2.28;;;;;;;;;;5036364;28;20228;-83
2021/06/14 15:52:25;;;;;;;3.13;2.22;;;;;;;;;;5021568;28;20115;-80
2021/06/14 15:55:12;;;;;;;5.07;2.58;;;;;;;;;;5039683;28;20036;-83
2021/06/14 15:57:58;;;;;;;4.93;2.50;;;;;;;;;;5039308;28;20021;-83
2021/06/14 16:00:43;;;;;;;5.43;2.65;;;;;;;;;;5026793;28;20375;-81
2021/06/14 16:03:28;;;;;;;5.63;2.30;;;;;;;;;;5039585;28;20021;-82
2021/06/14 16:06:14;;;;;;;6.97;2.20;;;;;;;;;;5045073;28;20087;-81
2021/06/14 16:08:59;;;;;;;4.53;2.42;;;;;;;;;;5033909;28;20025;-81
2021/06/14 16:11:44;;;;;;;4.85;2.72;;;;;;;;;;5032819;28;20105;-82
2021/06/14 16:14:30;;;;;;;6.43;2.45;;;;;;;;;;5034857;28;20025;-81
2021/06/14 16:17:15;;;;;;;5.65;2.38;;;;;;;;;;5036408;28;20103;-81
2021/06/14 16:20:01;;;;;;;3.90;2.08;;;;;;;;;;5036304;28;20415;-84
2021/06/14 16:22:47;;;;;;;8.27;2.78;;;;;;;;;;5038683;28;20016;-83
2021/06/14 16:25:33;;;;;;;3.17;1.92;;;;;;;;;;5035550;28;20578;-82
2021/06/14 16:28:18;;;;;;;7.38;2.10;;;;;;;;;;5039195;28;20056;-82
2021/06/14 16:31:05;;;;;;;3.78;2.28;;;;;;;;;;5065325;28;20044;-81
2021/06/14 16:33:50;;;;;;;3.58;2.30;;;;;;;;;;5052970;28;20077;-80
2021/06/14 16:36:39;;;;;;;5.40;2.55;;;;;;;;;;5038491;28;20080;-84
2021/06/14 16:39:24;;;;;;;5.30;2.77;;;;;;;;;;5034884;28;20124;-78
2021/06/14 16:42:11;;;;;;;3.85;2.03;;;;;;;;;;5038896;28;20353;-78